sensor_id;sensor_type;location;lat;lon;timestamp;temperature;humidity
69901;DHT22;57183;50.930;5.406;2023-02-01T00:01:10;6.70;99.90
69901;DHT22;57183;50.930;5.406;2023-02-01T00:03:36;6.80;99.90
69901;DHT22;57183;50.930;5.406;2023-02-01T00:06:02;6.80;99.90
69901;DHT22;57183;50.930;5.406;2023-02-01T00:08:28;6.80;99.90
69901;DHT22;57183;50.930;5.406;2023-02-01T00:11:05;6.80;99.90
69901;DHT22;57183;50.930;5.406;2023-02-01T00:13:33;6.80;99.90
69901;DHT22;57183;50.930;5.406;2023-02-01T00:16:06;6.80;99.90
69901;DHT22;57183;50.930;5.406;2023-02-01T00:18:33;6.90;99.90
69901;DHT22;57183;50.930;5.406;2023-02-01T00:20:59;6.80;99.90
69901;DHT22;57183;50.930;5.406;2023-02-01T00:23:25;6.80;99.90
69901;DHT22;57183;50.930;5.406;2023-02-01T00:25:51;6.80;99.90
69901;DHT22;57183;50.930;5.406;2023-02-01T00:28:16;6.70;99.90
69901;DHT22;57183;50.930;5.406;2023-02-01T00:30:42;6.80;99.90
69901;DHT22;57183;50.930;5.406;2023-02-01T00:33:08;6.80;99.90
69901;DHT22;57183;50.930;5.406;2023-02-01T00:35:34;6.80;99.90
69901;DHT22;57183;50.930;5.406;2023-02-01T00:38:01;6.80;99.90
69901;DHT22;57183;50.930;5.406;2023-02-01T00:40:26;6.80;99.90
69901;DHT22;57183;50.930;5.406;2023-02-01T00:42:52;6.90;99.90
69901;DHT22;57183;50.930;5.406;2023-02-01T00:45:19;6.80;99.90
69901;DHT22;57183;50.930;5.406;2023-02-01T00:47:45;6.80;99.90
69901;DHT22;57183;50.930;5.406;2023-02-01T00:50:10;6.80;99.90
69901;DHT22;57183;50.930;5.406;2023-02-01T00:52:36;6.90;99.90
69901;DHT22;57183;50.930;5.406;2023-02-01T00:55:02;6.90;99.90
69901;DHT22;57183;50.930;5.406;2023-02-01T00:57:28;6.90;99.90
69901;DHT22;57183;50.930;5.406;2023-02-01T00:59:53;6.90;99.90
69901;DHT22;57183;50.930;5.406;2023-02-01T01:02:19;6.90;99.90
69901;DHT22;57183;50.930;5.406;2023-02-01T01:04:45;6.90;99.90
69901;DHT22;57183;50.930;5.406;2023-02-01T01:07:11;6.90;99.90
69901;DHT22;57183;50.930;5.406;2023-02-01T01:09:36;6.90;99.90
69901;DHT22;57183;50.930;5.406;2023-02-01T01:12:02;6.90;99.90
69901;DHT22;57183;50.930;5.406;2023-02-01T01:14:32;6.90;99.90
69901;DHT22;57183;50.930;5.406;2023-02-01T01:16:58;6.90;99.90
69901;DHT22;57183;50.930;5.406;2023-02-01T01:19:23;6.90;99.90
69901;DHT22;57183;50.930;5.406;2023-02-01T01:21:49;6.90;99.90
69901;DHT22;57183;50.930;5.406;2023-02-01T01:24:15;6.90;99.90
69901;DHT22;57183;50.930;5.406;2023-02-01T01:26:40;6.90;99.90
69901;DHT22;57183;50.930;5.406;2023-02-01T01:29:08;6.90;99.90
69901;DHT22;57183;50.930;5.406;2023-02-01T01:31:34;6.90;99.90
69901;DHT22;57183;50.930;5.406;2023-02-01T01:34:00;7.00;99.90
69901;DHT22;57183;50.930;5.406;2023-02-01T01:36:26;7.00;99.90
69901;DHT22;57183;50.930;5.406;2023-02-01T01:38:52;7.10;99.90
69901;DHT22;57183;50.930;5.406;2023-02-01T01:41:24;7.10;99.90
69901;DHT22;57183;50.930;5.406;2023-02-01T01:46:39;7.20;99.90
69901;DHT22;57183;50.930;5.406;2023-02-01T01:49:10;7.20;99.90
69901;DHT22;57183;50.930;5.406;2023-02-01T01:51:50;7.20;99.90
69901;DHT22;57183;50.930;5.406;2023-02-01T01:54:20;7.20;99.90
69901;DHT22;57183;50.930;5.406;2023-02-01T01:56:50;7.10;99.90
69901;DHT22;57183;50.930;5.406;2023-02-01T01:59:20;7.00;99.90
69901;DHT22;57183;50.930;5.406;2023-02-01T02:01:47;7.00;99.90
69901;DHT22;57183;50.930;5.406;2023-02-01T02:04:13;7.00;99.90
69901;DHT22;57183;50.930;5.406;2023-02-01T02:09:15;7.00;99.90
69901;DHT22;57183;50.930;5.406;2023-02-01T02:11:41;7.00;99.90
69901;DHT22;57183;50.930;5.406;2023-02-01T02:14:10;7.10;99.90
69901;DHT22;57183;50.930;5.406;2023-02-01T02:17:10;7.10;99.90
69901;DHT22;57183;50.930;5.406;2023-02-01T02:22:46;7.00;99.90
69901;DHT22;57183;50.930;5.406;2023-02-01T02:45:08;7.10;99.90
69901;DHT22;57183;50.930;5.406;2023-02-01T02:51:04;7.00;99.90
69901;DHT22;57183;50.930;5.406;2023-02-01T02:54:06;7.00;99.90
69901;DHT22;57183;50.930;5.406;2023-02-01T02:56:52;7.00;99.90
69901;DHT22;57183;50.930;5.406;2023-02-01T02:59:38;7.00;99.90
69901;DHT22;57183;50.930;5.406;2023-02-01T03:02:26;7.10;99.90
69901;DHT22;57183;50.930;5.406;2023-02-01T03:05:11;7.00;99.90
69901;DHT22;57183;50.930;5.406;2023-02-01T03:07:53;7.00;99.90
69901;DHT22;57183;50.930;5.406;2023-02-01T03:13:13;7.00;99.90
69901;DHT22;57183;50.930;5.406;2023-02-01T03:15:45;6.90;99.90
69901;DHT22;57183;50.930;5.406;2023-02-01T03:18:32;6.90;99.90
69901;DHT22;57183;50.930;5.406;2023-02-01T03:21:06;6.90;99.90
69901;DHT22;57183;50.930;5.406;2023-02-01T03:23:35;6.80;99.90
69901;DHT22;57183;50.930;5.406;2023-02-01T03:26:04;6.80;99.90
69901;DHT22;57183;50.930;5.406;2023-02-01T03:28:33;6.70;99.90
69901;DHT22;57183;50.930;5.406;2023-02-01T03:31:00;6.70;99.90
69901;DHT22;57183;50.930;5.406;2023-02-01T03:33:27;6.70;99.90
69901;DHT22;57183;50.930;5.406;2023-02-01T03:41:35;6.60;99.90
69901;DHT22;57183;50.930;5.406;2023-02-01T03:47:14;6.60;99.90
69901;DHT22;57183;50.930;5.406;2023-02-01T03:49:48;6.60;99.90
69901;DHT22;57183;50.930;5.406;2023-02-01T03:52:18;6.50;99.90
69901;DHT22;57183;50.930;5.406;2023-02-01T03:54:46;6.40;99.90
69901;DHT22;57183;50.930;5.406;2023-02-01T03:57:14;6.40;99.90
69901;DHT22;57183;50.930;5.406;2023-02-01T03:59:44;6.40;99.90
69901;DHT22;57183;50.930;5.406;2023-02-01T04:02:10;6.30;99.90
69901;DHT22;57183;50.930;5.406;2023-02-01T04:04:35;6.30;99.90
69901;DHT22;57183;50.930;5.406;2023-02-01T04:07:02;6.30;99.90
69901;DHT22;57183;50.930;5.406;2023-02-01T04:09:27;6.30;99.90
69901;DHT22;57183;50.930;5.406;2023-02-01T04:11:53;6.30;99.90
69901;DHT22;57183;50.930;5.406;2023-02-01T04:14:19;6.20;99.90
69901;DHT22;57183;50.930;5.406;2023-02-01T04:16:45;6.30;99.90
69901;DHT22;57183;50.930;5.406;2023-02-01T04:19:11;6.20;99.90
69901;DHT22;57183;50.930;5.406;2023-02-01T04:21:36;6.30;99.90
69901;DHT22;57183;50.930;5.406;2023-02-01T04:24:02;6.20;99.90
69901;DHT22;57183;50.930;5.406;2023-02-01T04:26:28;6.30;99.90
69901;DHT22;57183;50.930;5.406;2023-02-01T04:28:54;6.30;99.90
69901;DHT22;57183;50.930;5.406;2023-02-01T04:31:20;6.30;99.90
69901;DHT22;57183;50.930;5.406;2023-02-01T04:33:52;6.30;99.90
69901;DHT22;57183;50.930;5.406;2023-02-01T04:36:18;6.30;99.90
69901;DHT22;57183;50.930;5.406;2023-02-01T04:38:47;6.30;99.90
69901;DHT22;57183;50.930;5.406;2023-02-01T04:41:13;6.30;99.90
69901;DHT22;57183;50.930;5.406;2023-02-01T04:43:38;6.20;99.90
69901;DHT22;57183;50.930;5.406;2023-02-01T04:46:04;6.20;99.90
69901;DHT22;57183;50.930;5.406;2023-02-01T04:48:30;6.20;99.90
69901;DHT22;57183;50.930;5.406;2023-02-01T04:50:56;6.10;99.90
69901;DHT22;57183;50.930;5.406;2023-02-01T04:53:21;6.10;99.90
69901;DHT22;57183;50.930;5.406;2023-02-01T04:55:48;6.00;99.90
69901;DHT22;57183;50.930;5.406;2023-02-01T04:58:15;6.00;99.90
69901;DHT22;57183;50.930;5.406;2023-02-01T05:00:41;6.00;99.90
69901;DHT22;57183;50.930;5.406;2023-02-01T05:03:07;6.00;99.90
69901;DHT22;57183;50.930;5.406;2023-02-01T05:05:33;6.00;99.90
69901;DHT22;57183;50.930;5.406;2023-02-01T05:07:59;6.00;99.90
69901;DHT22;57183;50.930;5.406;2023-02-01T05:10:24;6.00;99.90
69901;DHT22;57183;50.930;5.406;2023-02-01T05:12:50;6.10;99.90
69901;DHT22;57183;50.930;5.406;2023-02-01T05:15:34;6.10;99.90
69901;DHT22;57183;50.930;5.406;2023-02-01T05:17:59;6.00;99.90
69901;DHT22;57183;50.930;5.406;2023-02-01T05:20:25;6.00;99.90
69901;DHT22;57183;50.930;5.406;2023-02-01T05:22:51;6.10;99.90
69901;DHT22;57183;50.930;5.406;2023-02-01T05:25:17;6.10;99.90
69901;DHT22;57183;50.930;5.406;2023-02-01T05:27:42;6.10;99.90
69901;DHT22;57183;50.930;5.406;2023-02-01T05:30:09;6.10;99.90
69901;DHT22;57183;50.930;5.406;2023-02-01T05:32:34;6.10;99.90
69901;DHT22;57183;50.930;5.406;2023-02-01T05:35:00;6.00;99.90
69901;DHT22;57183;50.930;5.406;2023-02-01T05:37:27;6.10;99.90
69901;DHT22;57183;50.930;5.406;2023-02-01T05:39:52;6.00;99.90
69901;DHT22;57183;50.930;5.406;2023-02-01T05:42:18;6.00;99.90
69901;DHT22;57183;50.930;5.406;2023-02-01T05:44:44;5.90;99.90
69901;DHT22;57183;50.930;5.406;2023-02-01T05:47:10;5.90;99.90
69901;DHT22;57183;50.930;5.406;2023-02-01T05:49:35;5.90;99.90
69901;DHT22;57183;50.930;5.406;2023-02-01T05:52:01;5.80;99.90
69901;DHT22;57183;50.930;5.406;2023-02-01T05:54:27;5.80;99.90
69901;DHT22;57183;50.930;5.406;2023-02-01T05:56:53;5.80;99.90
69901;DHT22;57183;50.930;5.406;2023-02-01T05:59:19;5.80;99.90
69901;DHT22;57183;50.930;5.406;2023-02-01T06:01:44;5.80;99.90
69901;DHT22;57183;50.930;5.406;2023-02-01T06:04:10;5.70;99.90
69901;DHT22;57183;50.930;5.406;2023-02-01T06:06:36;5.70;99.90
69901;DHT22;57183;50.930;5.406;2023-02-01T06:09:03;5.70;99.90
69901;DHT22;57183;50.930;5.406;2023-02-01T06:11:29;5.60;99.90
69901;DHT22;57183;50.930;5.406;2023-02-01T06:13:55;5.70;99.90
69901;DHT22;57183;50.930;5.406;2023-02-01T06:16:21;5.60;99.90
69901;DHT22;57183;50.930;5.406;2023-02-01T06:18:48;5.50;99.90
69901;DHT22;57183;50.930;5.406;2023-02-01T06:21:14;5.60;99.90
69901;DHT22;57183;50.930;5.406;2023-02-01T06:23:49;5.50;99.90
69901;DHT22;57183;50.930;5.406;2023-02-01T06:26:15;5.50;99.90
69901;DHT22;57183;50.930;5.406;2023-02-01T06:28:42;5.50;99.90
69901;DHT22;57183;50.930;5.406;2023-02-01T06:31:08;5.50;99.90
69901;DHT22;57183;50.930;5.406;2023-02-01T06:33:34;5.40;99.90
69901;DHT22;57183;50.930;5.406;2023-02-01T06:36:02;5.50;99.90
69901;DHT22;57183;50.930;5.406;2023-02-01T06:38:29;5.50;99.90
69901;DHT22;57183;50.930;5.406;2023-02-01T06:40:56;5.50;99.90
69901;DHT22;57183;50.930;5.406;2023-02-01T06:43:24;5.50;99.90
69901;DHT22;57183;50.930;5.406;2023-02-01T06:45:50;5.50;99.90
69901;DHT22;57183;50.930;5.406;2023-02-01T06:48:16;5.50;99.90
69901;DHT22;57183;50.930;5.406;2023-02-01T06:50:41;5.40;99.90
69901;DHT22;57183;50.930;5.406;2023-02-01T06:53:07;5.40;99.90
69901;DHT22;57183;50.930;5.406;2023-02-01T06:55:33;5.30;99.90
69901;DHT22;57183;50.930;5.406;2023-02-01T06:57:58;5.30;99.90
69901;DHT22;57183;50.930;5.406;2023-02-01T07:00:24;5.30;99.90
69901;DHT22;57183;50.930;5.406;2023-02-01T07:02:50;5.20;99.90
69901;DHT22;57183;50.930;5.406;2023-02-01T07:05:16;5.20;99.90
69901;DHT22;57183;50.930;5.406;2023-02-01T07:07:43;5.20;99.90
69901;DHT22;57183;50.930;5.406;2023-02-01T07:10:09;5.20;99.90
69901;DHT22;57183;50.930;5.406;2023-02-01T07:12:35;5.20;99.90
69901;DHT22;57183;50.930;5.406;2023-02-01T07:15:01;5.20;99.90
69901;DHT22;57183;50.930;5.406;2023-02-01T07:17:28;5.20;99.90
69901;DHT22;57183;50.930;5.406;2023-02-01T07:19:55;5.20;99.90
69901;DHT22;57183;50.930;5.406;2023-02-01T07:22:21;5.20;99.90
69901;DHT22;57183;50.930;5.406;2023-02-01T07:24:47;5.20;99.90
69901;DHT22;57183;50.930;5.406;2023-02-01T07:27:13;5.20;99.90
69901;DHT22;57183;50.930;5.406;2023-02-01T07:29:38;5.20;99.90
69901;DHT22;57183;50.930;5.406;2023-02-01T07:32:04;5.20;99.90
69901;DHT22;57183;50.930;5.406;2023-02-01T07:34:30;5.10;99.90
69901;DHT22;57183;50.930;5.406;2023-02-01T07:36:56;5.20;99.90
69901;DHT22;57183;50.930;5.406;2023-02-01T07:39:22;5.20;99.90
69901;DHT22;57183;50.930;5.406;2023-02-01T07:41:47;5.20;99.90
69901;DHT22;57183;50.930;5.406;2023-02-01T07:44:13;5.30;99.90
69901;DHT22;57183;50.930;5.406;2023-02-01T07:46:39;5.30;99.90
69901;DHT22;57183;50.930;5.406;2023-02-01T07:49:05;5.30;99.90
69901;DHT22;57183;50.930;5.406;2023-02-01T07:51:31;5.30;99.90
69901;DHT22;57183;50.930;5.406;2023-02-01T07:53:57;5.30;99.90
69901;DHT22;57183;50.930;5.406;2023-02-01T07:56:24;5.30;99.90
69901;DHT22;57183;50.930;5.406;2023-02-01T07:58:52;5.40;99.90
69901;DHT22;57183;50.930;5.406;2023-02-01T08:01:21;5.30;99.90
69901;DHT22;57183;50.930;5.406;2023-02-01T08:04:00;5.30;99.90
69901;DHT22;57183;50.930;5.406;2023-02-01T08:06:28;5.30;99.90
69901;DHT22;57183;50.930;5.406;2023-02-01T08:08:55;5.30;99.90
69901;DHT22;57183;50.930;5.406;2023-02-01T08:11:22;5.20;99.90
69901;DHT22;57183;50.930;5.406;2023-02-01T08:13:48;5.30;99.90
69901;DHT22;57183;50.930;5.406;2023-02-01T08:16:15;5.30;99.90
69901;DHT22;57183;50.930;5.406;2023-02-01T08:18:42;5.40;99.90
69901;DHT22;57183;50.930;5.406;2023-02-01T08:21:10;5.50;99.90
69901;DHT22;57183;50.930;5.406;2023-02-01T08:23:38;5.50;99.90
69901;DHT22;57183;50.930;5.406;2023-02-01T08:26:15;5.60;99.90
69901;DHT22;57183;50.930;5.406;2023-02-01T08:28:48;5.60;99.90
69901;DHT22;57183;50.930;5.406;2023-02-01T08:31:16;5.60;99.90
69901;DHT22;57183;50.930;5.406;2023-02-01T08:33:43;5.80;99.90
69901;DHT22;57183;50.930;5.406;2023-02-01T08:36:09;5.80;99.90
69901;DHT22;57183;50.930;5.406;2023-02-01T08:38:37;6.00;99.90
69901;DHT22;57183;50.930;5.406;2023-02-01T08:41:14;6.10;99.90
69901;DHT22;57183;50.930;5.406;2023-02-01T08:43:41;6.00;99.90
69901;DHT22;57183;50.930;5.406;2023-02-01T08:46:07;6.00;99.90
69901;DHT22;57183;50.930;5.406;2023-02-01T08:48:34;6.10;99.90
69901;DHT22;57183;50.930;5.406;2023-02-01T08:51:05;6.10;99.90
69901;DHT22;57183;50.930;5.406;2023-02-01T08:53:32;6.10;99.90
69901;DHT22;57183;50.930;5.406;2023-02-01T08:55:58;6.20;99.90
69901;DHT22;57183;50.930;5.406;2023-02-01T08:58:24;6.30;99.90
69901;DHT22;57183;50.930;5.406;2023-02-01T09:00:49;6.20;99.90
69901;DHT22;57183;50.930;5.406;2023-02-01T09:03:15;6.10;99.90
69901;DHT22;57183;50.930;5.406;2023-02-01T09:05:41;6.10;99.90
69901;DHT22;57183;50.930;5.406;2023-02-01T09:08:07;6.10;99.90
69901;DHT22;57183;50.930;5.406;2023-02-01T09:10:34;6.10;99.90
69901;DHT22;57183;50.930;5.406;2023-02-01T09:13:00;6.20;99.90
69901;DHT22;57183;50.930;5.406;2023-02-01T09:15:26;6.20;99.90
69901;DHT22;57183;50.930;5.406;2023-02-01T09:17:51;6.20;99.90
69901;DHT22;57183;50.930;5.406;2023-02-01T09:20:17;6.20;99.90
69901;DHT22;57183;50.930;5.406;2023-02-01T09:22:45;6.20;99.90
69901;DHT22;57183;50.930;5.406;2023-02-01T09:25:11;6.20;99.90
69901;DHT22;57183;50.930;5.406;2023-02-01T09:27:36;6.30;99.90
69901;DHT22;57183;50.930;5.406;2023-02-01T09:30:03;6.30;99.90
69901;DHT22;57183;50.930;5.406;2023-02-01T09:32:29;6.40;99.90
69901;DHT22;57183;50.930;5.406;2023-02-01T09:34:55;6.40;99.90
69901;DHT22;57183;50.930;5.406;2023-02-01T09:37:21;6.40;99.90
69901;DHT22;57183;50.930;5.406;2023-02-01T09:39:47;6.40;99.90
69901;DHT22;57183;50.930;5.406;2023-02-01T09:45:15;6.40;99.90
69901;DHT22;57183;50.930;5.406;2023-02-01T09:47:53;6.40;99.90
69901;DHT22;57183;50.930;5.406;2023-02-01T09:50:23;6.40;99.90
69901;DHT22;57183;50.930;5.406;2023-02-01T09:53:02;6.50;99.90
69901;DHT22;57183;50.930;5.406;2023-02-01T09:55:40;6.60;99.90
69901;DHT22;57183;50.930;5.406;2023-02-01T10:00:56;6.80;99.90
69901;DHT22;57183;50.930;5.406;2023-02-01T10:03:24;6.80;99.90
69901;DHT22;57183;50.930;5.406;2023-02-01T10:20:23;7.20;99.90
69901;DHT22;57183;50.930;5.406;2023-02-01T10:22:51;7.20;99.90
69901;DHT22;57183;50.930;5.406;2023-02-01T10:25:26;7.20;99.90
69901;DHT22;57183;50.930;5.406;2023-02-01T10:27:54;7.30;99.90
69901;DHT22;57183;50.930;5.406;2023-02-01T10:30:25;7.40;99.90
69901;DHT22;57183;50.930;5.406;2023-02-01T10:33:07;7.40;99.90
69901;DHT22;57183;50.930;5.406;2023-02-01T10:35:38;7.50;99.90
69901;DHT22;57183;50.930;5.406;2023-02-01T10:38:17;7.60;99.90
69901;DHT22;57183;50.930;5.406;2023-02-01T10:40:44;7.70;99.90
69901;DHT22;57183;50.930;5.406;2023-02-01T10:43:09;7.60;99.90
69901;DHT22;57183;50.930;5.406;2023-02-01T10:45:37;7.60;99.90
69901;DHT22;57183;50.930;5.406;2023-02-01T10:48:05;7.70;99.90
69901;DHT22;57183;50.930;5.406;2023-02-01T10:50:56;7.80;99.90
69901;DHT22;57183;50.930;5.406;2023-02-01T10:53:37;7.80;99.90
69901;DHT22;57183;50.930;5.406;2023-02-01T10:56:11;7.90;99.90
69901;DHT22;57183;50.930;5.406;2023-02-01T10:58:44;8.00;99.90
69901;DHT22;57183;50.930;5.406;2023-02-01T11:01:17;8.10;99.90
69901;DHT22;57183;50.930;5.406;2023-02-01T11:03:57;8.20;99.90
69901;DHT22;57183;50.930;5.406;2023-02-01T11:06:37;8.20;99.90
69901;DHT22;57183;50.930;5.406;2023-02-01T11:11:31;8.30;99.90
69901;DHT22;57183;50.930;5.406;2023-02-01T11:13:59;8.30;99.90
69901;DHT22;57183;50.930;5.406;2023-02-01T11:16:34;8.40;99.90
69901;DHT22;57183;50.930;5.406;2023-02-01T11:19:00;8.50;99.90
69901;DHT22;57183;50.930;5.406;2023-02-01T11:21:27;8.60;99.90
69901;DHT22;57183;50.930;5.406;2023-02-01T11:23:53;8.60;99.90
69901;DHT22;57183;50.930;5.406;2023-02-01T11:26:24;8.80;99.90
69901;DHT22;57183;50.930;5.406;2023-02-01T11:29:00;8.90;99.90
69901;DHT22;57183;50.930;5.406;2023-02-01T11:31:27;9.00;99.90
69901;DHT22;57183;50.930;5.406;2023-02-01T11:34:06;9.10;99.90
69901;DHT22;57183;50.930;5.406;2023-02-01T11:36:35;9.10;99.90
69901;DHT22;57183;50.930;5.406;2023-02-01T11:44:37;9.20;99.90
69901;DHT22;57183;50.930;5.406;2023-02-01T11:47:27;9.10;99.90
69901;DHT22;57183;50.930;5.406;2023-02-01T11:49:58;9.00;99.90
69901;DHT22;57183;50.930;5.406;2023-02-01T12:00:36;9.50;99.90
69901;DHT22;57183;50.930;5.406;2023-02-01T12:16:42;9.10;99.90
69901;DHT22;57183;50.930;5.406;2023-02-01T12:33:43;9.10;99.90
69901;DHT22;57183;50.930;5.406;2023-02-01T12:44:16;9.00;99.90
69901;DHT22;57183;50.930;5.406;2023-02-01T12:46:55;9.00;99.90
69901;DHT22;57183;50.930;5.406;2023-02-01T12:52:30;8.90;99.90
69901;DHT22;57183;50.930;5.406;2023-02-01T13:00:50;9.00;99.90
69901;DHT22;57183;50.930;5.406;2023-02-01T13:11:32;8.90;99.90
69901;DHT22;57183;50.930;5.406;2023-02-01T13:14:07;9.00;99.90
69901;DHT22;57183;50.930;5.406;2023-02-01T13:16:42;9.00;99.90
69901;DHT22;57183;50.930;5.406;2023-02-01T13:22:06;9.00;99.90
69901;DHT22;57183;50.930;5.406;2023-02-01T13:24:40;9.00;99.90
69901;DHT22;57183;50.930;5.406;2023-02-01T13:27:11;8.90;99.90
69901;DHT22;57183;50.930;5.406;2023-02-01T13:29:50;9.00;99.90
69901;DHT22;57183;50.930;5.406;2023-02-01T13:32:46;9.00;99.90
69901;DHT22;57183;50.930;5.406;2023-02-01T13:35:19;9.00;99.90
69901;DHT22;57183;50.930;5.406;2023-02-01T13:43:31;9.00;99.90
69901;DHT22;57183;50.930;5.406;2023-02-01T13:46:07;9.10;99.90
69901;DHT22;57183;50.930;5.406;2023-02-01T13:48:40;9.10;99.90
69901;DHT22;57183;50.930;5.406;2023-02-01T13:51:07;9.10;99.90
69901;DHT22;57183;50.930;5.406;2023-02-01T13:53:37;9.10;99.90
69901;DHT22;57183;50.930;5.406;2023-02-01T13:56:17;9.10;99.90
69901;DHT22;57183;50.930;5.406;2023-02-01T13:58:45;9.10;99.90
69901;DHT22;57183;50.930;5.406;2023-02-01T14:03:52;9.30;99.90
69901;DHT22;57183;50.930;5.406;2023-02-01T14:19:20;9.30;99.90
69901;DHT22;57183;50.930;5.406;2023-02-01T14:24:57;9.30;99.90
69901;DHT22;57183;50.930;5.406;2023-02-01T14:27:34;9.30;99.90
69901;DHT22;57183;50.930;5.406;2023-02-01T14:30:05;9.30;99.90
69901;DHT22;57183;50.930;5.406;2023-02-01T14:32:39;9.30;99.90
69901;DHT22;57183;50.930;5.406;2023-02-01T14:35:12;9.30;99.90
69901;DHT22;57183;50.930;5.406;2023-02-01T14:37:41;9.30;99.90
69901;DHT22;57183;50.930;5.406;2023-02-01T14:40:20;9.40;99.90
69901;DHT22;57183;50.930;5.406;2023-02-01T14:42:51;9.40;99.90
69901;DHT22;57183;50.930;5.406;2023-02-01T15:01:30;9.40;99.90
69901;DHT22;57183;50.930;5.406;2023-02-01T15:04:14;9.40;99.90
69901;DHT22;57183;50.930;5.406;2023-02-01T15:07:05;9.30;99.90
69901;DHT22;57183;50.930;5.406;2023-02-01T15:09:35;9.30;99.90
69901;DHT22;57183;50.930;5.406;2023-02-01T15:14:42;9.40;99.90
69901;DHT22;57183;50.930;5.406;2023-02-01T15:17:23;9.40;99.90
69901;DHT22;57183;50.930;5.406;2023-02-01T15:19:57;9.30;99.90
69901;DHT22;57183;50.930;5.406;2023-02-01T15:22:24;9.30;99.90
69901;DHT22;57183;50.930;5.406;2023-02-01T15:24:55;9.30;99.90
69901;DHT22;57183;50.930;5.406;2023-02-01T15:27:22;9.20;99.90
69901;DHT22;57183;50.930;5.406;2023-02-01T15:29:48;9.10;99.90
69901;DHT22;57183;50.930;5.406;2023-02-01T15:32:31;8.90;99.90
69901;DHT22;57183;50.930;5.406;2023-02-01T15:34:58;8.70;99.90
69901;DHT22;57183;50.930;5.406;2023-02-01T15:37:27;8.60;99.90
69901;DHT22;57183;50.930;5.406;2023-02-01T15:42:53;8.70;99.90
69901;DHT22;57183;50.930;5.406;2023-02-01T15:45:22;8.70;99.90
69901;DHT22;57183;50.930;5.406;2023-02-01T15:47:51;8.60;99.90
69901;DHT22;57183;50.930;5.406;2023-02-01T15:50:19;8.60;99.90
69901;DHT22;57183;50.930;5.406;2023-02-01T15:52:48;8.60;99.90
69901;DHT22;57183;50.930;5.406;2023-02-01T15:57:59;8.60;99.90
69901;DHT22;57183;50.930;5.406;2023-02-01T16:00:30;8.60;99.90
69901;DHT22;57183;50.930;5.406;2023-02-01T16:03:03;8.60;99.90
69901;DHT22;57183;50.930;5.406;2023-02-01T16:05:38;8.50;99.90
69901;DHT22;57183;50.930;5.406;2023-02-01T16:08:11;8.40;99.90
69901;DHT22;57183;50.930;5.406;2023-02-01T16:10:40;8.40;99.90
69901;DHT22;57183;50.930;5.406;2023-02-01T16:13:06;8.30;99.90
69901;DHT22;57183;50.930;5.406;2023-02-01T16:15:32;8.30;99.90
69901;DHT22;57183;50.930;5.406;2023-02-01T16:17:58;8.20;99.90
69901;DHT22;57183;50.930;5.406;2023-02-01T16:20:24;8.20;99.90
69901;DHT22;57183;50.930;5.406;2023-02-01T16:22:50;8.10;99.90
69901;DHT22;57183;50.930;5.406;2023-02-01T16:25:15;8.20;99.90
69901;DHT22;57183;50.930;5.406;2023-02-01T16:27:41;8.20;99.90
69901;DHT22;57183;50.930;5.406;2023-02-01T16:30:07;8.30;99.90
69901;DHT22;57183;50.930;5.406;2023-02-01T16:32:35;8.30;99.90
69901;DHT22;57183;50.930;5.406;2023-02-01T16:35:04;8.50;99.90
69901;DHT22;57183;50.930;5.406;2023-02-01T16:37:31;8.60;99.90
69901;DHT22;57183;50.930;5.406;2023-02-01T16:39:58;8.60;99.90
69901;DHT22;57183;50.930;5.406;2023-02-01T16:42:24;8.50;99.90
69901;DHT22;57183;50.930;5.406;2023-02-01T16:44:50;8.60;99.90
69901;DHT22;57183;50.930;5.406;2023-02-01T16:47:21;8.60;99.90
69901;DHT22;57183;50.930;5.406;2023-02-01T16:49:47;8.60;99.90
69901;DHT22;57183;50.930;5.406;2023-02-01T16:52:22;8.50;99.90
69901;DHT22;57183;50.930;5.406;2023-02-01T16:54:49;8.30;99.90
69901;DHT22;57183;50.930;5.406;2023-02-01T16:57:17;8.30;99.90
69901;DHT22;57183;50.930;5.406;2023-02-01T16:59:43;8.20;99.90
69901;DHT22;57183;50.930;5.406;2023-02-01T17:02:18;8.20;99.90
69901;DHT22;57183;50.930;5.406;2023-02-01T17:04:47;8.20;99.90
69901;DHT22;57183;50.930;5.406;2023-02-01T17:07:18;8.20;99.90
69901;DHT22;57183;50.930;5.406;2023-02-01T17:09:45;8.20;99.90
69901;DHT22;57183;50.930;5.406;2023-02-01T17:12:28;8.20;99.90
69901;DHT22;57183;50.930;5.406;2023-02-01T17:14:56;8.30;99.90
69901;DHT22;57183;50.930;5.406;2023-02-01T17:17:23;8.40;99.90
69901;DHT22;57183;50.930;5.406;2023-02-01T17:19:51;8.40;99.90
69901;DHT22;57183;50.930;5.406;2023-02-01T17:22:19;8.40;99.90
69901;DHT22;57183;50.930;5.406;2023-02-01T17:24:46;8.50;99.90
69901;DHT22;57183;50.930;5.406;2023-02-01T17:27:12;8.50;99.90
69901;DHT22;57183;50.930;5.406;2023-02-01T17:29:37;8.60;99.90
69901;DHT22;57183;50.930;5.406;2023-02-01T17:32:04;8.50;99.90
69901;DHT22;57183;50.930;5.406;2023-02-01T17:34:29;8.60;99.90
69901;DHT22;57183;50.930;5.406;2023-02-01T17:36:56;8.60;99.90
69901;DHT22;57183;50.930;5.406;2023-02-01T17:39:21;8.60;99.90
69901;DHT22;57183;50.930;5.406;2023-02-01T17:42:09;8.60;99.90
69901;DHT22;57183;50.930;5.406;2023-02-01T17:44:35;8.50;99.90
69901;DHT22;57183;50.930;5.406;2023-02-01T17:47:01;8.50;99.90
69901;DHT22;57183;50.930;5.406;2023-02-01T17:49:27;8.50;99.90
69901;DHT22;57183;50.930;5.406;2023-02-01T17:51:56;8.40;99.90
69901;DHT22;57183;50.930;5.406;2023-02-01T17:54:22;8.40;99.90
69901;DHT22;57183;50.930;5.406;2023-02-01T17:56:50;8.40;99.90
69901;DHT22;57183;50.930;5.406;2023-02-01T17:59:15;8.40;99.90
69901;DHT22;57183;50.930;5.406;2023-02-01T18:01:42;8.40;99.90
69901;DHT22;57183;50.930;5.406;2023-02-01T18:04:12;8.40;99.90
69901;DHT22;57183;50.930;5.406;2023-02-01T18:06:40;8.40;99.90
69901;DHT22;57183;50.930;5.406;2023-02-01T18:09:06;8.50;99.90
69901;DHT22;57183;50.930;5.406;2023-02-01T18:11:32;8.50;99.90
69901;DHT22;57183;50.930;5.406;2023-02-01T18:13:58;8.50;99.90
69901;DHT22;57183;50.930;5.406;2023-02-01T18:16:29;8.50;99.90
69901;DHT22;57183;50.930;5.406;2023-02-01T18:18:55;8.50;99.90
69901;DHT22;57183;50.930;5.406;2023-02-01T18:21:34;8.50;99.90
69901;DHT22;57183;50.930;5.406;2023-02-01T18:24:01;8.50;99.90
69901;DHT22;57183;50.930;5.406;2023-02-01T18:26:27;8.50;99.90
69901;DHT22;57183;50.930;5.406;2023-02-01T18:28:53;8.50;99.90
69901;DHT22;57183;50.930;5.406;2023-02-01T18:31:25;8.40;99.90
69901;DHT22;57183;50.930;5.406;2023-02-01T18:33:52;8.50;99.90
69901;DHT22;57183;50.930;5.406;2023-02-01T18:36:18;8.50;99.90
69901;DHT22;57183;50.930;5.406;2023-02-01T18:38:44;8.50;99.90
69901;DHT22;57183;50.930;5.406;2023-02-01T18:41:13;8.50;99.90
69901;DHT22;57183;50.930;5.406;2023-02-01T18:43:43;8.50;99.90
69901;DHT22;57183;50.930;5.406;2023-02-01T18:46:09;8.50;99.90
69901;DHT22;57183;50.930;5.406;2023-02-01T18:48:36;8.60;99.90
69901;DHT22;57183;50.930;5.406;2023-02-01T18:51:02;8.60;99.90
69901;DHT22;57183;50.930;5.406;2023-02-01T18:53:28;8.50;99.90
69901;DHT22;57183;50.930;5.406;2023-02-01T18:55:55;8.60;99.90
69901;DHT22;57183;50.930;5.406;2023-02-01T18:58:21;8.60;99.90
69901;DHT22;57183;50.930;5.406;2023-02-01T19:00:55;8.60;99.90